createdAt,value
2018-10-19T00:00:05.435Z,97836.33
2018-10-19T00:02:32.745Z,97840.67
2018-10-19T00:05:00.465Z,97838.72
2018-10-19T00:07:28.442Z,97841.97
2018-10-19T00:09:55.639Z,97844.94
2018-10-19T00:12:23.766Z,97843.86
2018-10-19T00:14:51.198Z,97846.13
2018-10-19T00:17:19.982Z,97840.10
2018-10-19T00:19:49.526Z,97839.36
2018-10-19T00:22:17.677Z,97841.68
2018-10-19T00:24:45.162Z,97840.94
2018-10-19T00:27:11.878Z,97839.66
2018-10-19T00:29:40.979Z,97841.61
2018-10-19T00:32:07.519Z,97835.73
2018-10-19T00:34:34.114Z,97838.53
2018-10-19T00:37:00.720Z,97831.56
2018-10-19T00:39:27.304Z,97826.11
2018-10-19T00:41:53.892Z,97823.37
2018-10-19T00:44:20.494Z,97829.63
2018-10-19T00:46:47.180Z,97826.69
2018-10-19T00:49:13.791Z,97822.78
2018-10-19T00:51:40.385Z,97823.42
2018-10-19T00:54:06.970Z,97819.03
2018-10-19T00:56:33.613Z,97814.26
2018-10-19T00:59:00.293Z,97814.55
2018-10-19T01:01:27.072Z,97810.34
2018-10-19T01:03:53.667Z,97807.34
2018-10-19T01:06:20.276Z,97802.47
2018-10-19T01:08:46.887Z,97800.66
2018-10-19T01:11:13.555Z,97800.48
2018-10-19T01:13:40.676Z,97804.61
2018-10-19T01:16:07.228Z,97803.67
2018-10-19T01:18:33.876Z,97811.63
2018-10-19T01:21:00.517Z,97806.84
2018-10-19T01:23:27.848Z,97809.15
2018-10-19T01:25:54.406Z,97812.81
2018-10-19T01:28:20.986Z,97809.47
2018-10-19T01:30:47.553Z,97804.98
2018-10-19T01:33:14.219Z,97809.86
2018-10-19T01:35:40.837Z,97808.27
2018-10-19T01:38:07.313Z,97806.94
2018-10-19T01:40:33.848Z,97802.66
2018-10-19T01:43:00.325Z,97807.03
2018-10-19T01:45:26.828Z,97805.28
2018-10-19T01:47:53.338Z,97805.08
2018-10-19T01:50:20.713Z,97804.27
2018-10-19T01:52:47.252Z,97804.06
2018-10-19T01:55:13.767Z,97806.31
2018-10-19T01:57:40.320Z,97813.75
2018-10-19T02:00:06.825Z,97810.39
2018-10-19T02:07:36.851Z,97811.30
2018-10-19T02:10:03.422Z,97802.47
2018-10-19T02:12:30.281Z,97806.84
2018-10-19T02:14:56.923Z,97808.14
2018-10-19T02:17:23.551Z,97801.91
2018-10-19T02:19:50.081Z,97799.00
2018-10-19T02:22:16.763Z,97803.78
2018-10-19T02:24:43.231Z,97801.33
2018-10-19T02:27:09.773Z,97804.06
2018-10-19T02:29:36.471Z,97802.16
2018-10-19T02:32:02.962Z,97807.16
2018-10-19T02:34:29.436Z,97803.08
2018-10-19T02:36:55.978Z,97806.32
2018-10-19T02:39:22.677Z,97812.39
2018-10-19T02:41:49.231Z,97811.05
2018-10-19T02:44:15.746Z,97812.72
2018-10-19T02:46:42.225Z,97806.53
2018-10-19T02:49:08.745Z,97808.05
2018-10-19T02:51:35.346Z,97804.65
2018-10-19T02:54:01.796Z,97807.50
2018-10-19T04:16:38.167Z,97810.75
2018-10-19T12:16:46.058Z,97819.00
2018-10-19T12:25:08.531Z,97818.61
2018-10-19T12:30:32.370Z,97811.78
2018-10-19T12:33:04.435Z,97804.78
2018-10-19T12:51:28.362Z,97813.41
2018-10-19T12:53:55.204Z,97813.97
2018-10-19T12:56:23.498Z,97812.80
2018-10-19T12:58:51.001Z,97815.31
2018-10-19T13:01:18.974Z,97818.80
2018-10-19T13:03:47.342Z,97814.48
2018-10-19T13:06:14.220Z,97822.38
2018-10-19T13:08:44.304Z,97826.13
2018-10-19T13:11:12.210Z,97826.67
2018-10-19T13:13:40.927Z,97827.98
2018-10-19T13:18:40.860Z,97828.33
2018-10-19T13:21:09.737Z,97824.64
2018-10-19T13:23:38.717Z,97827.86
2018-10-19T13:28:36.782Z,97831.55
2018-10-19T13:31:03.575Z,97831.31
2018-10-19T13:33:30.867Z,97827.55
2018-10-19T13:35:59.418Z,97819.89
2018-10-19T13:38:26.410Z,97824.80
2018-10-19T13:40:53.413Z,97822.77
2018-10-19T13:43:20.692Z,97832.85
2018-10-19T13:45:48.968Z,97832.81
2018-10-19T13:48:16.683Z,97834.48
2018-10-19T13:50:44.264Z,97842.55
2018-10-19T13:53:12.423Z,97842.19
2018-10-19T13:55:40.357Z,97839.54
2018-10-19T14:00:43.658Z,97833.66
2018-10-19T14:10:57.270Z,97835.80
2018-10-19T14:13:25.322Z,97831.05
2018-10-19T14:15:53.645Z,97831.12
2018-10-19T14:20:52.839Z,97843.01
2018-10-19T14:23:21.185Z,97839.61
2018-10-19T14:25:48.074Z,97841.48
2018-10-19T14:28:16.469Z,97846.41
2018-10-19T14:30:44.066Z,97843.80
2018-10-19T14:33:12.620Z,97847.25
2018-10-19T14:35:40.580Z,97841.95
2018-10-19T14:38:09.718Z,97840.44
2018-10-19T14:40:38.088Z,97839.06
2018-10-19T14:43:06.376Z,97846.09
2018-10-19T14:45:33.491Z,97845.94
2018-10-19T14:48:02.473Z,97845.48
2018-10-19T14:50:30.660Z,97846.05
2018-10-19T14:52:58.820Z,97842.61
2018-10-19T14:55:27.553Z,97849.88
2018-10-19T14:57:56.115Z,97839.80
2018-10-19T15:00:25.573Z,97847.52
2018-10-19T15:02:54.274Z,97842.04
2018-10-19T15:05:24.918Z,97846.73
2018-10-19T15:07:53.452Z,97842.17
2018-10-19T15:10:21.832Z,97840.36
2018-10-19T15:12:49.816Z,97842.58
2018-10-19T15:15:20.777Z,97845.84
2018-10-19T15:17:48.386Z,97845.38
2018-10-19T15:20:15.504Z,97858.05
2018-10-19T15:22:44.002Z,97860.25
2018-10-19T15:25:11.839Z,97857.31
2018-10-19T15:27:40.147Z,97862.41
2018-10-19T15:30:06.857Z,97855.06
2018-10-19T15:32:35.806Z,97861.83
2018-10-19T15:35:04.089Z,97861.79
2018-10-19T15:37:31.617Z,97864.98
2018-10-19T15:42:31.793Z,97865.75
2018-10-19T15:44:59.222Z,97873.75
2018-10-19T15:50:40.631Z,97880.23
2018-10-19T15:58:05.529Z,97887.23
2018-10-19T16:38:59.144Z,97941.58
2018-10-19T16:41:28.607Z,97944.19
2018-10-19T16:46:31.915Z,97951.26
2018-10-19T16:48:59.538Z,97951.77
2018-10-19T16:54:17.046Z,97962.30
2018-10-19T16:56:45.344Z,97961.33
2018-10-19T16:59:13.785Z,97960.11
2018-10-19T17:01:42.035Z,97969.22
2018-10-19T17:04:10.494Z,97966.68
2018-10-19T17:06:38.985Z,97972.80
2018-10-19T17:09:07.291Z,97977.34
2018-10-19T17:14:05.719Z,97990.03
2018-10-19T17:16:34.090Z,97985.38
2018-10-19T17:19:01.907Z,97991.83
2018-10-19T17:21:29.783Z,97997.95
2018-10-19T17:26:29.865Z,97999.31
2018-10-19T17:28:57.823Z,98001.19
2018-10-19T17:31:26.085Z,98003.32
2018-10-19T17:33:53.505Z,98005.92
2018-10-19T17:36:21.067Z,98007.11
2018-10-19T17:38:48.281Z,98008.31
2018-10-19T17:41:16.734Z,98017.28
2018-10-19T17:43:45.364Z,98009.59
2018-10-19T17:46:11.892Z,98004.19
2018-10-19T17:48:39.028Z,98014.53
2018-10-19T17:51:07.126Z,98014.28
2018-10-19T17:53:35.376Z,98018.87
2018-10-19T17:56:05.710Z,98016.47
2018-10-19T17:58:33.729Z,98024.41
2018-10-19T18:01:02.369Z,98023.78
2018-10-19T18:03:29.718Z,98018.77
2018-10-19T18:05:58.390Z,98022.75
2018-10-19T18:08:26.808Z,98023.72
2018-10-19T18:10:55.184Z,98031.36
2018-10-19T18:13:22.293Z,98033.63
2018-10-19T18:15:49.467Z,98035.25
2018-10-19T18:18:17.428Z,98034.95
2018-10-19T18:20:46.536Z,98038.82
2018-10-19T18:23:14.454Z,98039.20
2018-10-19T18:25:42.923Z,98043.50
2018-10-19T18:28:11.241Z,98040.23
2018-10-19T18:30:41.144Z,98044.61
2018-10-19T18:33:11.379Z,98045.42
2018-10-19T18:35:39.909Z,98055.80
2018-10-19T18:38:07.486Z,98052.48
2018-10-19T18:40:37.637Z,98051.30
2018-10-19T18:43:06.160Z,98054.27
2018-10-19T18:45:33.623Z,98055.34
2018-10-19T18:48:00.821Z,98057.05
2018-10-19T18:50:27.621Z,98056.42
2018-10-19T18:52:57.188Z,98060.28
2018-10-19T18:55:23.897Z,98063.34
2018-10-19T18:57:52.345Z,98062.02
2018-10-19T19:00:19.453Z,98060.28
2018-10-19T19:02:48.053Z,98059.09
2018-10-19T19:05:15.230Z,98067.31
2018-10-19T19:07:44.777Z,98066.91
2018-10-19T19:10:23.015Z,98067.11
2018-10-19T19:12:50.861Z,98066.23
2018-10-19T19:15:18.990Z,98069.00
2018-10-19T19:17:46.544Z,98074.53
2018-10-19T19:20:15.768Z,98073.88
2018-10-19T19:22:43.176Z,98069.48
2018-10-19T19:33:41.370Z,98085.08
2018-10-19T19:36:17.062Z,98077.28
2018-10-19T23:22:33.496Z,98148.33
2018-10-19T23:25:04.575Z,98153.38
2018-10-19T23:27:32.240Z,98153.16
2018-10-19T23:29:59.216Z,98147.99
2018-10-19T23:32:26.660Z,98145.16
2018-10-19T23:40:37.201Z,98152.44
2018-10-19T23:43:04.601Z,98151.13
2018-10-19T23:45:31.897Z,98157.40
2018-10-19T23:48:00.502Z,98155.79
2018-10-19T23:50:27.680Z,98158.18
2018-10-19T23:52:55.902Z,98155.40
2018-10-19T23:55:23.453Z,98157.98
2018-10-19T23:57:51.350Z,98159.00
